sensor_id;sensor_type;location;lat;lon;timestamp;P1;durP1;ratioP1;P2;durP2;ratioP2
7497;SDS011;3790;48.806;9.140;2024-01-30T07:53:31;0.60;;;0.60;;
7497;SDS011;3790;48.806;9.140;2024-01-30T07:58:31;3.37;;;1.00;;
7497;SDS011;3790;48.806;9.140;2024-01-30T08:03:32;2.03;;;0.60;;
7497;SDS011;3790;48.806;9.140;2024-01-30T08:08:32;4.33;;;1.53;;
7497;SDS011;3790;48.806;9.140;2024-01-30T08:13:33;1.83;;;0.87;;
7497;SDS011;3790;48.806;9.140;2024-01-30T08:18:33;1.90;;;0.87;;
7497;SDS011;3790;48.806;9.140;2024-01-30T08:23:34;1.73;;;0.73;;
7497;SDS011;3790;48.806;9.140;2024-01-30T08:28:34;0.87;;;0.70;;
7497;SDS011;3790;48.806;9.140;2024-01-30T08:33:35;1.63;;;1.00;;
7497;SDS011;3790;48.806;9.140;2024-01-30T08:38:35;1.77;;;1.00;;
7497;SDS011;3790;48.806;9.140;2024-01-30T08:43:36;2.53;;;1.30;;
7497;SDS011;3790;48.806;9.140;2024-01-30T08:48:37;2.07;;;1.23;;
7497;SDS011;3790;48.806;9.140;2024-01-30T08:53:37;3.03;;;1.50;;
7497;SDS011;3790;48.806;9.140;2024-01-30T08:58:38;1.83;;;1.27;;
7497;SDS011;3790;48.806;9.140;2024-01-30T09:03:38;2.00;;;1.30;;
7497;SDS011;3790;48.806;9.140;2024-01-30T09:08:43;3.37;;;1.70;;
7497;SDS011;3790;48.806;9.140;2024-01-30T09:13:44;3.70;;;1.57;;
7497;SDS011;3790;48.806;9.140;2024-01-30T09:18:44;2.67;;;1.40;;
7497;SDS011;3790;48.806;9.140;2024-01-30T09:23:45;3.23;;;1.50;;
7497;SDS011;3790;48.806;9.140;2024-01-30T09:28:45;3.67;;;1.80;;
7497;SDS011;3790;48.806;9.140;2024-01-30T09:33:46;3.47;;;2.00;;
7497;SDS011;3790;48.806;9.140;2024-01-30T09:38:48;5.67;;;2.60;;
7497;SDS011;3790;48.806;9.140;2024-01-30T09:43:48;4.27;;;2.20;;
7497;SDS011;3790;48.806;9.140;2024-01-30T09:48:50;4.83;;;2.37;;
7497;SDS011;3790;48.806;9.140;2024-01-30T09:53:50;3.20;;;1.80;;
7497;SDS011;3790;48.806;9.140;2024-01-30T09:58:51;3.73;;;1.87;;
7497;SDS011;3790;48.806;9.140;2024-01-30T10:03:52;4.87;;;2.30;;
7497;SDS011;3790;48.806;9.140;2024-01-30T10:08:53;5.17;;;2.63;;
7497;SDS011;3790;48.806;9.140;2024-01-30T10:13:54;5.40;;;2.80;;
7497;SDS011;3790;48.806;9.140;2024-01-30T10:18:54;5.00;;;2.20;;
7497;SDS011;3790;48.806;9.140;2024-01-30T10:23:55;3.27;;;2.07;;
7497;SDS011;3790;48.806;9.140;2024-01-30T10:28:56;4.57;;;2.87;;
7497;SDS011;3790;48.806;9.140;2024-01-30T10:33:56;4.50;;;2.70;;
7497;SDS011;3790;48.806;9.140;2024-01-30T10:38:59;5.70;;;2.47;;
7497;SDS011;3790;48.806;9.140;2024-01-30T10:44:08;5.57;;;2.73;;
7497;SDS011;3790;48.806;9.140;2024-01-30T10:49:09;6.23;;;2.73;;
7497;SDS011;3790;48.806;9.140;2024-01-30T10:54:10;4.23;;;2.60;;
7497;SDS011;3790;48.806;9.140;2024-01-30T10:59:12;4.87;;;2.40;;
7497;SDS011;3790;48.806;9.140;2024-01-30T11:04:13;4.20;;;2.37;;
7497;SDS011;3790;48.806;9.140;2024-01-30T11:09:16;5.50;;;2.33;;
7497;SDS011;3790;48.806;9.140;2024-01-30T11:14:24;5.23;;;2.70;;
7497;SDS011;3790;48.806;9.140;2024-01-30T11:19:26;7.90;;;2.97;;
7497;SDS011;3790;48.806;9.140;2024-01-30T11:24:27;5.77;;;2.87;;
7497;SDS011;3790;48.806;9.140;2024-01-30T11:29:28;5.43;;;3.00;;
7497;SDS011;3790;48.806;9.140;2024-01-30T11:34:28;5.70;;;2.60;;
7497;SDS011;3790;48.806;9.140;2024-01-30T11:39:29;6.53;;;3.03;;
7497;SDS011;3790;48.806;9.140;2024-01-30T11:44:30;8.00;;;3.08;;
7497;SDS011;3790;48.806;9.140;2024-01-30T11:49:30;5.17;;;2.40;;
7497;SDS011;3790;48.806;9.140;2024-01-30T11:54:31;3.67;;;2.20;;
7497;SDS011;3790;48.806;9.140;2024-01-30T11:59:31;5.82;;;2.75;;
7497;SDS011;3790;48.806;9.140;2024-01-30T12:04:32;6.35;;;2.40;;
7497;SDS011;3790;48.806;9.140;2024-01-30T12:09:32;5.60;;;3.25;;
7497;SDS011;3790;48.806;9.140;2024-01-30T12:14:33;4.40;;;2.58;;
7497;SDS011;3790;48.806;9.140;2024-01-30T12:19:34;5.82;;;2.80;;
7497;SDS011;3790;48.806;9.140;2024-01-30T12:24:34;8.60;;;3.38;;
7497;SDS011;3790;48.806;9.140;2024-01-30T12:29:35;7.90;;;3.15;;
7497;SDS011;3790;48.806;9.140;2024-01-30T12:34:40;5.57;;;2.92;;
7497;SDS011;3790;48.806;9.140;2024-01-30T12:39:41;8.60;;;3.15;;
7497;SDS011;3790;48.806;9.140;2024-01-30T12:44:42;6.55;;;3.33;;
7497;SDS011;3790;48.806;9.140;2024-01-30T12:49:43;5.10;;;2.80;;
7497;SDS011;3790;48.806;9.140;2024-01-30T12:54:44;4.65;;;3.00;;
7497;SDS011;3790;48.806;9.140;2024-01-30T12:59:44;4.03;;;2.80;;
7497;SDS011;3790;48.806;9.140;2024-01-30T13:04:45;6.10;;;2.90;;
7497;SDS011;3790;48.806;9.140;2024-01-30T13:09:46;5.07;;;2.80;;
7497;SDS011;3790;48.806;9.140;2024-01-30T13:14:47;5.05;;;2.83;;
7497;SDS011;3790;48.806;9.140;2024-01-30T13:19:48;7.00;;;3.33;;
7497;SDS011;3790;48.806;9.140;2024-01-30T13:24:49;6.03;;;2.90;;
7497;SDS011;3790;48.806;9.140;2024-01-30T13:29:50;11.88;;;2.95;;
7497;SDS011;3790;48.806;9.140;2024-01-30T13:34:50;6.47;;;3.63;;
7497;SDS011;3790;48.806;9.140;2024-01-30T13:39:51;7.43;;;3.42;;
7497;SDS011;3790;48.806;9.140;2024-01-30T13:44:51;5.53;;;3.00;;
7497;SDS011;3790;48.806;9.140;2024-01-30T13:49:53;5.35;;;2.97;;
7497;SDS011;3790;48.806;9.140;2024-01-30T13:54:53;6.28;;;4.00;;
7497;SDS011;3790;48.806;9.140;2024-01-30T13:59:54;6.43;;;3.20;;
7497;SDS011;3790;48.806;9.140;2024-01-30T14:04:54;6.45;;;3.00;;
7497;SDS011;3790;48.806;9.140;2024-01-30T14:09:55;5.93;;;2.60;;
7497;SDS011;3790;48.806;9.140;2024-01-30T14:14:55;7.68;;;3.67;;
7497;SDS011;3790;48.806;9.140;2024-01-30T14:19:56;9.75;;;3.47;;
7497;SDS011;3790;48.806;9.140;2024-01-30T14:24:56;8.93;;;3.22;;
7497;SDS011;3790;48.806;9.140;2024-01-30T14:29:57;6.07;;;3.50;;
7497;SDS011;3790;48.806;9.140;2024-01-30T14:34:58;5.40;;;3.30;;
7497;SDS011;3790;48.806;9.140;2024-01-30T14:39:58;8.65;;;2.65;;
7497;SDS011;3790;48.806;9.140;2024-01-30T14:44:59;7.53;;;3.20;;
7497;SDS011;3790;48.806;9.140;2024-01-30T14:50:00;7.60;;;3.60;;
7497;SDS011;3790;48.806;9.140;2024-01-30T14:55:00;5.50;;;3.00;;
7497;SDS011;3790;48.806;9.140;2024-01-30T15:00:01;6.15;;;3.00;;
7497;SDS011;3790;48.806;9.140;2024-01-30T15:05:01;5.63;;;2.55;;
7497;SDS011;3790;48.806;9.140;2024-01-30T15:10:02;5.72;;;2.95;;
7497;SDS011;3790;48.806;9.140;2024-01-30T15:15:04;7.75;;;2.70;;
7497;SDS011;3790;48.806;9.140;2024-01-30T15:20:07;10.77;;;3.42;;
7497;SDS011;3790;48.806;9.140;2024-01-30T15:25:08;7.57;;;4.22;;
7497;SDS011;3790;48.806;9.140;2024-01-30T15:30:10;7.55;;;3.15;;
7497;SDS011;3790;48.806;9.140;2024-01-30T15:35:12;6.45;;;2.97;;
7497;SDS011;3790;48.806;9.140;2024-01-30T15:40:12;5.35;;;2.35;;
7497;SDS011;3790;48.806;9.140;2024-01-30T15:45:13;6.88;;;2.60;;
7497;SDS011;3790;48.806;9.140;2024-01-30T15:50:13;6.78;;;3.15;;
7497;SDS011;3790;48.806;9.140;2024-01-30T15:55:14;8.67;;;3.50;;
7497;SDS011;3790;48.806;9.140;2024-01-30T16:00:16;5.73;;;2.30;;
7497;SDS011;3790;48.806;9.140;2024-01-30T16:05:16;5.63;;;2.83;;
7497;SDS011;3790;48.806;9.140;2024-01-30T16:10:17;5.73;;;2.43;;
7497;SDS011;3790;48.806;9.140;2024-01-30T16:15:17;5.40;;;2.70;;
7497;SDS011;3790;48.806;9.140;2024-01-30T16:20:18;5.13;;;2.43;;
7497;SDS011;3790;48.806;9.140;2024-01-30T16:25:19;3.87;;;2.20;;
7497;SDS011;3790;48.806;9.140;2024-01-30T16:30:19;3.07;;;1.73;;
7497;SDS011;3790;48.806;9.140;2024-01-30T16:35:20;4.90;;;2.10;;
7497;SDS011;3790;48.806;9.140;2024-01-30T16:40:20;4.97;;;1.87;;
7497;SDS011;3790;48.806;9.140;2024-01-30T16:45:21;3.70;;;1.87;;
7497;SDS011;3790;48.806;9.140;2024-01-30T16:50:22;5.03;;;2.37;;
7497;SDS011;3790;48.806;9.140;2024-01-30T16:55:22;7.23;;;2.20;;
7497;SDS011;3790;48.806;9.140;2024-01-30T17:00:25;3.03;;;1.40;;
7497;SDS011;3790;48.806;9.140;2024-01-30T17:05:25;4.03;;;1.90;;
7497;SDS011;3790;48.806;9.140;2024-01-30T17:10:26;5.87;;;2.30;;
7497;SDS011;3790;48.806;9.140;2024-01-30T17:15:27;3.97;;;1.90;;
7497;SDS011;3790;48.806;9.140;2024-01-30T17:20:27;3.80;;;1.93;;
7497;SDS011;3790;48.806;9.140;2024-01-30T17:25:28;5.60;;;1.87;;
7497;SDS011;3790;48.806;9.140;2024-01-30T17:30:29;5.40;;;1.80;;
7497;SDS011;3790;48.806;9.140;2024-01-30T17:35:29;5.07;;;2.37;;
7497;SDS011;3790;48.806;9.140;2024-01-30T17:40:30;5.77;;;2.50;;
7497;SDS011;3790;48.806;9.140;2024-01-30T17:45:30;6.30;;;2.70;;
7497;SDS011;3790;48.806;9.140;2024-01-30T17:50:31;4.77;;;2.33;;
7497;SDS011;3790;48.806;9.140;2024-01-30T17:55:31;5.90;;;2.23;;
7497;SDS011;3790;48.806;9.140;2024-01-30T18:00:33;3.53;;;2.10;;
7497;SDS011;3790;48.806;9.140;2024-01-30T18:05:34;4.97;;;2.43;;
7497;SDS011;3790;48.806;9.140;2024-01-30T18:10:34;4.83;;;2.43;;
7497;SDS011;3790;48.806;9.140;2024-01-30T18:15:36;6.10;;;2.63;;
7497;SDS011;3790;48.806;9.140;2024-01-30T18:20:36;6.67;;;2.43;;
7497;SDS011;3790;48.806;9.140;2024-01-30T18:25:37;4.93;;;2.07;;
7497;SDS011;3790;48.806;9.140;2024-01-30T18:30:38;5.13;;;1.90;;
7497;SDS011;3790;48.806;9.140;2024-01-30T18:35:38;2.80;;;1.50;;
7497;SDS011;3790;48.806;9.140;2024-01-30T18:40:38;3.00;;;1.13;;
7497;SDS011;3790;48.806;9.140;2024-01-30T18:45:39;5.60;;;3.23;;
7497;SDS011;3790;48.806;9.140;2024-01-30T18:50:40;3.73;;;1.77;;
7497;SDS011;3790;48.806;9.140;2024-01-30T18:55:41;4.13;;;1.73;;
7497;SDS011;3790;48.806;9.140;2024-01-30T19:00:41;3.30;;;1.40;;
7497;SDS011;3790;48.806;9.140;2024-01-30T19:05:43;3.07;;;1.10;;
7497;SDS011;3790;48.806;9.140;2024-01-30T19:10:44;3.97;;;1.63;;
7497;SDS011;3790;48.806;9.140;2024-01-30T19:15:49;2.87;;;1.50;;
7497;SDS011;3790;48.806;9.140;2024-01-30T19:20:50;3.20;;;1.43;;
7497;SDS011;3790;48.806;9.140;2024-01-30T19:25:51;3.40;;;1.60;;
7497;SDS011;3790;48.806;9.140;2024-01-30T19:30:51;5.67;;;1.77;;
7497;SDS011;3790;48.806;9.140;2024-01-30T19:35:52;5.43;;;3.43;;
7497;SDS011;3790;48.806;9.140;2024-01-30T19:40:52;11.90;;;3.40;;
7497;SDS011;3790;48.806;9.140;2024-01-30T19:45:53;3.63;;;1.50;;
7497;SDS011;3790;48.806;9.140;2024-01-30T19:50:53;4.80;;;2.03;;
7497;SDS011;3790;48.806;9.140;2024-01-30T19:55:54;2.83;;;1.40;;
7497;SDS011;3790;48.806;9.140;2024-01-30T20:00:55;2.77;;;1.30;;
7497;SDS011;3790;48.806;9.140;2024-01-30T20:05:55;3.13;;;1.33;;
7497;SDS011;3790;48.806;9.140;2024-01-30T20:10:56;2.40;;;1.30;;
7497;SDS011;3790;48.806;9.140;2024-01-30T20:15:57;3.43;;;1.80;;
7497;SDS011;3790;48.806;9.140;2024-01-30T20:20:58;3.43;;;1.50;;
7497;SDS011;3790;48.806;9.140;2024-01-30T20:25:59;3.37;;;1.70;;
7497;SDS011;3790;48.806;9.140;2024-01-30T20:31:02;4.67;;;1.70;;
7497;SDS011;3790;48.806;9.140;2024-01-30T20:36:05;3.30;;;1.40;;
7497;SDS011;3790;48.806;9.140;2024-01-30T20:41:06;2.87;;;1.27;;
7497;SDS011;3790;48.806;9.140;2024-01-30T20:46:09;3.50;;;1.67;;
7497;SDS011;3790;48.806;9.140;2024-01-30T20:51:16;4.13;;;2.43;;
7497;SDS011;3790;48.806;9.140;2024-01-30T20:56:17;3.80;;;1.93;;
7497;SDS011;3790;48.806;9.140;2024-01-30T21:01:17;4.33;;;1.70;;
7497;SDS011;3790;48.806;9.140;2024-01-30T21:06:18;6.47;;;2.50;;
7497;SDS011;3790;48.806;9.140;2024-01-30T21:17:16;4.63;;;2.63;;
7497;SDS011;3790;48.806;9.140;2024-01-30T21:22:16;5.70;;;1.90;;
7497;SDS011;3790;48.806;9.140;2024-01-30T21:27:17;4.83;;;2.50;;
7497;SDS011;3790;48.806;9.140;2024-01-30T21:32:18;5.00;;;2.30;;
7497;SDS011;3790;48.806;9.140;2024-01-30T21:37:18;5.23;;;2.20;;
7497;SDS011;3790;48.806;9.140;2024-01-30T21:42:19;5.23;;;2.30;;
7497;SDS011;3790;48.806;9.140;2024-01-30T21:47:22;6.87;;;1.90;;
7497;SDS011;3790;48.806;9.140;2024-01-30T21:52:22;4.27;;;1.77;;
7497;SDS011;3790;48.806;9.140;2024-01-30T21:57:23;4.60;;;1.93;;
7497;SDS011;3790;48.806;9.140;2024-01-30T22:02:24;4.33;;;1.77;;
7497;SDS011;3790;48.806;9.140;2024-01-30T22:07:24;3.40;;;1.90;;
7497;SDS011;3790;48.806;9.140;2024-01-30T22:12:25;4.07;;;2.20;;
7497;SDS011;3790;48.806;9.140;2024-01-30T22:17:26;6.63;;;2.37;;
7497;SDS011;3790;48.806;9.140;2024-01-30T22:22:26;7.87;;;3.50;;
7497;SDS011;3790;48.806;9.140;2024-01-30T22:27:27;3.10;;;1.70;;
7497;SDS011;3790;48.806;9.140;2024-01-30T22:32:27;3.67;;;2.03;;
7497;SDS011;3790;48.806;9.140;2024-01-30T22:37:28;4.60;;;2.00;;
7497;SDS011;3790;48.806;9.140;2024-01-30T22:42:28;4.53;;;1.93;;
7497;SDS011;3790;48.806;9.140;2024-01-30T22:47:29;4.67;;;1.80;;
7497;SDS011;3790;48.806;9.140;2024-01-30T22:52:30;5.87;;;2.10;;
7497;SDS011;3790;48.806;9.140;2024-01-30T22:57:30;4.50;;;1.83;;
7497;SDS011;3790;48.806;9.140;2024-01-30T23:02:33;3.70;;;1.93;;
7497;SDS011;3790;48.806;9.140;2024-01-30T23:07:33;3.53;;;1.70;;
7497;SDS011;3790;48.806;9.140;2024-01-30T23:12:40;4.23;;;2.23;;
7497;SDS011;3790;48.806;9.140;2024-01-30T23:17:41;3.90;;;1.73;;
